Bl Darnell — WDE5130 — position and weather

sailwx.info

Track history (hours):
 
Tides and Currents Weather Stations Pressure Air Temp Water Temp Dewpoint Dewpoint Depression Visibility Wind Speed Wind Dir Waves Ship Positions

Bl Darnell

Owner: The Tug BL Darnell, L.L.C., Channelview, TX. More information available from US FCC via Universal Licensing System and Coast Guard Vessel Documentation Center.

Last reported at 2017-Nov-24 23:55 UTC. Time now 2017-Nov-25 00:13 UTC.
Position N 29°44' W 095°01'.

Length 22 m.

Type: Other ship. MMSI: 367362460.

Date/timePositionNaut miles runAvg speedWind from/ knotsBaromVisibWave heightAir tempDewpointWater temp
2017-Nov-24 23:55N 29°44' W 095°01'0 0.0
2017-Nov-24 23:26N 29°44' W 095°01'0 0.0
2017-Nov-24 22:56N 29°44' W 095°01'0 0.0
2017-Nov-24 22:12N 29°44' W 095°01'0 0.0
2017-Nov-24 21:59N 29°44' W 095°01'0 0.0
2017-Nov-24 19:54N 29°44' W 095°01'0 0.0
2017-Nov-24 19:09N 29°44' W 095°01'0 0.0
2017-Nov-24 18:47N 29°44' W 095°01'0 0.0
2017-Nov-24 18:15N 29°44' W 095°01'0 0.0
2017-Nov-24 17:26N 29°44' W 095°01'0 0.0
2017-Nov-24 16:57N 29°44' W 095°01'0 0.0
2017-Nov-24 16:24N 29°44' W 095°01'0 0.0
2017-Nov-24 15:58N 29°44' W 095°01'0 0.0
2017-Nov-24 15:30N 29°44' W 095°01'0 0.0
2017-Nov-24 14:59N 29°44' W 095°01'0 0.0
2017-Nov-24 14:30N 29°44' W 095°01'0 0.0
2017-Nov-24 14:00N 29°44' W 095°01'0 0.0
2017-Nov-24 13:22N 29°44' W 095°01'0 0.0
2017-Nov-24 12:56N 29°44' W 095°01'0 0.0
2017-Nov-24 12:30N 29°44' W 095°01'0 0.0
2017-Nov-24 10:32N 29°44' W 095°01'0 0.0
2017-Nov-24 10:16N 29°44' W 095°01'0 0.0
2017-Nov-24 09:58N 29°44' W 095°01'0 0.0
2017-Nov-24 09:29N 29°44' W 095°01'0 0.0
2017-Nov-24 08:22N 29°44' W 095°01'0 0.0
2017-Nov-24 07:58N 29°44' W 095°01'0 0.6
2017-Nov-24 07:30N 29°44' W 095°01'0 0.1
2017-Nov-24 06:11N 29°44' W 095°01'1 5.2
2017-Nov-24 06:00N 29°44' W 095°02'3 5.5
2017-Nov-24 05:27N 29°46' W 095°05'2 2.7
2017-Nov-24 04:48N 29°47' W 095°04'0 0.3
2017-Nov-24 04:30N 29°47' W 095°04'0 0.0
2017-Nov-24 04:00N 29°47' W 095°04'2 4.0
2017-Nov-24 03:25N 29°46' W 095°06'0 0.0
2017-Nov-23 15:58N 29°46' W 095°06'2 4.2
2017-Nov-23 15:30N 29°47' W 095°04'1 2.4
2017-Nov-23 14:54N 29°46' W 095°05'2 3.3
2017-Nov-23 14:25N 29°45' W 095°06'0 0.6
2017-Nov-23 13:56N 29°45' W 095°06'1 2.7
2017-Nov-23 13:25N 29°46' W 095°06'0 0.0
2017-Nov-23 03:33N 29°46' W 095°06'0 0.2
2017-Nov-23 03:25N 29°46' W 095°06'1 1.3
2017-Nov-23 03:00N 29°46' W 095°06'3 5.2
2017-Nov-23 02:30N 29°44' W 095°03'1 1.0
2017-Nov-23 01:57N 29°44' W 095°03'0 0.3
2017-Nov-23 01:30N 29°44' W 095°03'3 2.5
2017-Nov-23 00:13N 29°47' W 095°04'1 0.2
2017-Nov-22 19:35N 29°46' W 095°05'  
2017-Nov-19 17:40N 29°46' W 095°06'0 0.0
2017-Nov-19 16:50N 29°46' W 095°06'0 0.0
2017-Nov-19 16:06N 29°46' W 095°06'0 0.0
2017-Nov-19 15:57N 29°46' W 095°06'0 0.0
2017-Nov-19 15:25N 29°46' W 095°06'1 2.3
2017-Nov-19 15:00N 29°46' W 095°05'1 0.0
2017-Nov-18 13:12N 29°45' W 095°06'1 3.6
2017-Nov-18 12:59N 29°46' W 095°05'3 0.2
2017-Nov-18 00:48N 29°44' W 095°08'2 6.8
2017-Nov-18 00:29N 29°45' W 095°06'1 0.7
2017-Nov-17 23:00N 29°46' W 095°06'0 0.0
2017-Nov-17 20:59N 29°46' W 095°06'0 0.0
2017-Nov-17 18:56N 29°46' W 095°06'0 0.0
2017-Nov-17 14:06N 29°46' W 095°06'0 0.0
2017-Nov-17 13:50N 29°46' W 095°06'0 0.0
2017-Nov-17 13:21N 29°46' W 095°06'1 1.6
2017-Nov-17 13:00N 29°46' W 095°06'2 0.9
2017-Nov-17 10:45N 29°47' W 095°04'1 4.0
2017-Nov-17 10:30N 29°46' W 095°05'1 2.0
2017-Nov-17 09:52N 29°45' W 095°06'0 0.6
2017-Nov-17 09:27N 29°45' W 095°06'1 1.2
2017-Nov-17 08:59N 29°45' W 095°06'0 0.1
2017-Nov-17 06:51N 29°45' W 095°06'1 0.4
2017-Nov-17 04:07N 29°46' W 095°05'1 6.5
2017-Nov-17 04:00N 29°46' W 095°05'3 6.3
2017-Nov-17 03:30N 29°44' W 095°02'5 0.7
2017-Nov-16 21:03N 29°46' W 095°06'0 0.1
2017-Nov-16 18:20N 29°46' W 095°06'1 0.8
2017-Nov-16 16:49N 29°46' W 095°05'2 6.2
2017-Nov-16 16:30N 29°44' W 095°03'2 0.5
2017-Nov-16 13:27N 29°44' W 095°01'0 0.0
2017-Nov-16 12:57N 29°44' W 095°01'0 0.0
2017-Nov-16 12:29N 29°44' W 095°01'0 0.0
2017-Nov-16 12:00N 29°44' W 095°01'0 0.0
2017-Nov-16 11:27N 29°44' W 095°01'0 0.0
2017-Nov-16 11:00N 29°44' W 095°01'0 0.0
2017-Nov-16 10:30N 29°44' W 095°01'0 0.0
2017-Nov-16 10:00N 29°44' W 095°01'0 0.0
2017-Nov-16 09:30N 29°44' W 095°01'0 0.0
2017-Nov-16 09:00N 29°44' W 095°01'0 0.0
2017-Nov-16 08:29N 29°44' W 095°01'0 0.0
2017-Nov-16 07:57N 29°44' W 095°01'0 0.0
2017-Nov-16 07:30N 29°44' W 095°01'0 0.0
2017-Nov-16 07:00N 29°44' W 095°01'0 0.0
2017-Nov-16 06:28N 29°44' W 095°01'0 0.1
2017-Nov-16 06:00N 29°44' W 095°01'0 0.0
2017-Nov-16 05:24N 29°44' W 095°01'0 0.0
2017-Nov-16 04:59N 29°44' W 095°01'0 0.0
2017-Nov-16 04:30N 29°44' W 095°01'0 0.4
2017-Nov-16 03:56N 29°44' W 095°01'0 0.0
2017-Nov-15 19:19N 29°44' W 095°02'4 1.4
2017-Nov-15 16:51N 29°46' W 095°05'3 2.9
2017-Nov-15 15:51N 29°44' W 095°08'0 0.0
2017-Nov-15 11:24N 29°44' W 095°08'0 0.0
2017-Nov-15 10:57N 29°44' W 095°08'0 0.0
2017-Nov-15 10:28N 29°44' W 095°08'0 0.0
2017-Nov-15 09:10N 29°44' W 095°08'0 0.0
2017-Nov-15 08:55N 29°44' W 095°08'0 0.0
2017-Nov-15 08:28N 29°44' W 095°08'0 0.0
2017-Nov-15 07:24N 29°44' W 095°08'0 0.0
2017-Nov-15 06:59N 29°44' W 095°08'0 0.0
2017-Nov-15 06:18N 29°44' W 095°08'0 0.0
2017-Nov-15 05:56N 29°44' W 095°08'0 0.0
2017-Nov-15 05:17N 29°44' W 095°08'0 0.1
2017-Nov-15 04:50N 29°44' W 095°08'0 0.0
2017-Nov-15 04:24N 29°44' W 095°08'1 2.2
2017-Nov-15 04:00N 29°44' W 095°07'4 5.2
2017-Nov-15 03:18N 29°47' W 095°04'1 3.3
2017-Nov-15 02:53N 29°46' W 095°05'1 0.7
2017-Nov-15 01:12N 29°46' W 095°06'0 0.1
2017-Nov-15 00:53N 29°46' W 095°06'0 0.4
2017-Nov-15 00:29N 29°46' W 095°06'  
Track history (hours):
 
Tides and Currents Weather Stations Pressure Air Temp Water Temp Dewpoint Dewpoint Depression Visibility Wind Speed Wind Dir Waves Ship Positions

Bl Darnell

Owner: The Tug BL Darnell, L.L.C., Channelview, TX. More information available from US FCC via Universal Licensing System and Coast Guard Vessel Documentation Center.

Last reported at 2017-Nov-24 23:55 UTC. Time now 2017-Nov-25 00:13 UTC.
Position N 29°44' W 095°01'.

Length 22 m.

Type: Other ship. MMSI: 367362460.

Date/timePositionNaut miles runAvg speedWind from/ knotsBaromVisibWave heightAir tempDewpointWater temp
2017-Nov-24 23:55N 29°44' W 095°01'0 0.0
2017-Nov-24 23:26N 29°44' W 095°01'0 0.0
2017-Nov-24 22:56N 29°44' W 095°01'0 0.0
2017-Nov-24 22:12N 29°44' W 095°01'0 0.0
2017-Nov-24 21:59N 29°44' W 095°01'0 0.0
2017-Nov-24 19:54N 29°44' W 095°01'0 0.0
2017-Nov-24 19:09N 29°44' W 095°01'0 0.0
2017-Nov-24 18:47N 29°44' W 095°01'0 0.0
2017-Nov-24 18:15N 29°44' W 095°01'0 0.0
2017-Nov-24 17:26N 29°44' W 095°01'0 0.0
2017-Nov-24 16:57N 29°44' W 095°01'0 0.0
2017-Nov-24 16:24N 29°44' W 095°01'0 0.0
2017-Nov-24 15:58N 29°44' W 095°01'0 0.0
2017-Nov-24 15:30N 29°44' W 095°01'0 0.0
2017-Nov-24 14:59N 29°44' W 095°01'0 0.0
2017-Nov-24 14:30N 29°44' W 095°01'0 0.0
2017-Nov-24 14:00N 29°44' W 095°01'0 0.0
2017-Nov-24 13:22N 29°44' W 095°01'0 0.0
2017-Nov-24 12:56N 29°44' W 095°01'0 0.0
2017-Nov-24 12:30N 29°44' W 095°01'0 0.0
2017-Nov-24 10:32N 29°44' W 095°01'0 0.0
2017-Nov-24 10:16N 29°44' W 095°01'0 0.0
2017-Nov-24 09:58N 29°44' W 095°01'0 0.0
2017-Nov-24 09:29N 29°44' W 095°01'0 0.0
2017-Nov-24 08:22N 29°44' W 095°01'0 0.0
2017-Nov-24 07:58N 29°44' W 095°01'0 0.6
2017-Nov-24 07:30N 29°44' W 095°01'0 0.1
2017-Nov-24 06:11N 29°44' W 095°01'1 5.2
2017-Nov-24 06:00N 29°44' W 095°02'3 5.5
2017-Nov-24 05:27N 29°46' W 095°05'2 2.7
2017-Nov-24 04:48N 29°47' W 095°04'0 0.3
2017-Nov-24 04:30N 29°47' W 095°04'0 0.0
2017-Nov-24 04:00N 29°47' W 095°04'2 4.0
2017-Nov-24 03:25N 29°46' W 095°06'0 0.0
2017-Nov-23 15:58N 29°46' W 095°06'2 4.2
2017-Nov-23 15:30N 29°47' W 095°04'1 2.4
2017-Nov-23 14:54N 29°46' W 095°05'2 3.3
2017-Nov-23 14:25N 29°45' W 095°06'0 0.6
2017-Nov-23 13:56N 29°45' W 095°06'1 2.7
2017-Nov-23 13:25N 29°46' W 095°06'0 0.0
2017-Nov-23 03:33N 29°46' W 095°06'0 0.2
2017-Nov-23 03:25N 29°46' W 095°06'1 1.3
2017-Nov-23 03:00N 29°46' W 095°06'3 5.2
2017-Nov-23 02:30N 29°44' W 095°03'1 1.0
2017-Nov-23 01:57N 29°44' W 095°03'0 0.3
2017-Nov-23 01:30N 29°44' W 095°03'3 2.5
2017-Nov-23 00:13N 29°47' W 095°04'1 0.2
2017-Nov-22 19:35N 29°46' W 095°05'  
2017-Nov-19 17:40N 29°46' W 095°06'0 0.0
2017-Nov-19 16:50N 29°46' W 095°06'0 0.0
2017-Nov-19 16:06N 29°46' W 095°06'0 0.0
2017-Nov-19 15:57N 29°46' W 095°06'0 0.0
2017-Nov-19 15:25N 29°46' W 095°06'1 2.3
2017-Nov-19 15:00N 29°46' W 095°05'1 0.0
2017-Nov-18 13:12N 29°45' W 095°06'1 3.6
2017-Nov-18 12:59N 29°46' W 095°05'3 0.2
2017-Nov-18 00:48N 29°44' W 095°08'2 6.8
2017-Nov-18 00:29N 29°45' W 095°06'1 0.7
2017-Nov-17 23:00N 29°46' W 095°06'0 0.0
2017-Nov-17 20:59N 29°46' W 095°06'0 0.0
2017-Nov-17 18:56N 29°46' W 095°06'0 0.0
2017-Nov-17 14:06N 29°46' W 095°06'0 0.0
2017-Nov-17 13:50N 29°46' W 095°06'0 0.0
2017-Nov-17 13:21N 29°46' W 095°06'1 1.6
2017-Nov-17 13:00N 29°46' W 095°06'2 0.9
2017-Nov-17 10:45N 29°47' W 095°04'1 4.0
2017-Nov-17 10:30N 29°46' W 095°05'1 2.0
2017-Nov-17 09:52N 29°45' W 095°06'0 0.6
2017-Nov-17 09:27N 29°45' W 095°06'1 1.2
2017-Nov-17 08:59N 29°45' W 095°06'0 0.1
2017-Nov-17 06:51N 29°45' W 095°06'1 0.4
2017-Nov-17 04:07N 29°46' W 095°05'1 6.5
2017-Nov-17 04:00N 29°46' W 095°05'3 6.3
2017-Nov-17 03:30N 29°44' W 095°02'5 0.7
2017-Nov-16 21:03N 29°46' W 095°06'0 0.1
2017-Nov-16 18:20N 29°46' W 095°06'1 0.8
2017-Nov-16 16:49N 29°46' W 095°05'2 6.2
2017-Nov-16 16:30N 29°44' W 095°03'2 0.5
2017-Nov-16 13:27N 29°44' W 095°01'0 0.0
2017-Nov-16 12:57N 29°44' W 095°01'0 0.0
2017-Nov-16 12:29N 29°44' W 095°01'0 0.0
2017-Nov-16 12:00N 29°44' W 095°01'0 0.0
2017-Nov-16 11:27N 29°44' W 095°01'0 0.0
2017-Nov-16 11:00N 29°44' W 095°01'0 0.0
2017-Nov-16 10:30N 29°44' W 095°01'0 0.0
2017-Nov-16 10:00N 29°44' W 095°01'0 0.0
2017-Nov-16 09:30N 29°44' W 095°01'0 0.0
2017-Nov-16 09:00N 29°44' W 095°01'0 0.0
2017-Nov-16 08:29N 29°44' W 095°01'0 0.0
2017-Nov-16 07:57N 29°44' W 095°01'0 0.0
2017-Nov-16 07:30N 29°44' W 095°01'0 0.0
2017-Nov-16 07:00N 29°44' W 095°01'0 0.0
2017-Nov-16 06:28N 29°44' W 095°01'0 0.1
2017-Nov-16 06:00N 29°44' W 095°01'0 0.0
2017-Nov-16 05:24N 29°44' W 095°01'0 0.0
2017-Nov-16 04:59N 29°44' W 095°01'0 0.0
2017-Nov-16 04:30N 29°44' W 095°01'0 0.4
2017-Nov-16 03:56N 29°44' W 095°01'0 0.0
2017-Nov-15 19:19N 29°44' W 095°02'4 1.4
2017-Nov-15 16:51N 29°46' W 095°05'3 2.9
2017-Nov-15 15:51N 29°44' W 095°08'0 0.0
2017-Nov-15 11:24N 29°44' W 095°08'0 0.0
2017-Nov-15 10:57N 29°44' W 095°08'0 0.0
2017-Nov-15 10:28N 29°44' W 095°08'0 0.0
2017-Nov-15 09:10N 29°44' W 095°08'0 0.0
2017-Nov-15 08:55N 29°44' W 095°08'0 0.0
2017-Nov-15 08:28N 29°44' W 095°08'0 0.0
2017-Nov-15 07:24N 29°44' W 095°08'0 0.0
2017-Nov-15 06:59N 29°44' W 095°08'0 0.0
2017-Nov-15 06:18N 29°44' W 095°08'0 0.0
2017-Nov-15 05:56N 29°44' W 095°08'0 0.0
2017-Nov-15 05:17N 29°44' W 095°08'0 0.1
2017-Nov-15 04:50N 29°44' W 095°08'0 0.0
2017-Nov-15 04:24N 29°44' W 095°08'1 2.2
2017-Nov-15 04:00N 29°44' W 095°07'4 5.2
2017-Nov-15 03:18N 29°47' W 095°04'1 3.3
2017-Nov-15 02:53N 29°46' W 095°05'1 0.7
2017-Nov-15 01:12N 29°46' W 095°06'0 0.1
2017-Nov-15 00:53N 29°46' W 095°06'0 0.4
2017-Nov-15 00:29N 29°46' W 095°06'  

Dump ship's entire track history